Time;durP1;ratioP1;P1;durP2;ratioP2;P2;SDS_P1;SDS_P2;PMS_P1;PMS_P2;Temp;Humidity;BMP_temperature;BMP_pressure;BME280_temperature;BME280_humidity;BME280_pressure;Samples;Min_cycle;Max_cycle;Signal;HPM_P1;HPM_P2
2023/08/24 00:02:06;;;;;;;7.70;4.55;;;;;;;-142.75;100.00;76452.19;5028491;28;20539;-61
2023/08/24 00:04:31;;;;;;;8.63;5.03;;;;;;;-142.75;100.00;76436.44;5031832;28;20052;-61
2023/08/24 00:06:57;;;;;;;9.73;6.57;;;;;;;-142.75;100.00;76448.25;5048050;28;20745;-61
2023/08/24 00:09:22;;;;;;;10.43;5.10;;;;;;;-142.75;100.00;76438.41;5042807;28;20018;-62
2023/08/24 00:11:47;;;;;;;6.90;4.78;;;;;;;-142.75;100.00;76424.63;5028508;28;20066;-61
2023/08/24 00:14:13;;;;;;;7.30;4.90;;;;;;;-142.75;100.00;76424.63;5028498;28;20477;-62
2023/08/24 00:16:38;;;;;;;8.45;4.90;;;;;;;-142.75;100.00;76416.75;5028061;28;20060;-62
2023/08/24 00:19:04;;;;;;;10.30;5.50;;;;;;;-142.75;100.00;76416.75;5028082;28;20132;-61
2023/08/24 00:21:30;;;;;;;9.95;5.55;;;;;;;-142.75;100.00;76436.44;5028194;28;20436;-62
2023/08/24 00:23:55;;;;;;;11.13;5.38;;;;;;;-142.75;100.00;76436.44;5027910;28;20104;-60
2023/08/24 00:26:20;;;;;;;10.82;5.35;;;;;;;-142.75;100.00;76414.78;5028052;28;20025;-62
2023/08/24 00:28:46;;;;;;;9.88;5.70;;;;;;;-142.75;100.00;76401.00;5028228;28;20017;-62
2023/08/24 00:31:11;;;;;;;11.10;5.72;;;;;;;-142.75;100.00;76401.00;5026908;28;20354;-62
2023/08/24 00:33:37;;;;;;;8.82;5.22;;;;;;;-142.75;100.00;76401.00;5028005;28;20013;-62
2023/08/24 00:36:03;;;;;;;7.93;5.32;;;;;;;-142.75;100.00;76387.22;5027475;28;20018;-63
2023/08/24 00:38:29;;;;;;;8.02;5.00;;;;;;;-142.75;100.00;76381.31;5027835;28;20029;-62
2023/08/24 00:40:55;;;;;;;10.75;5.28;;;;;;;-142.75;100.00;76373.44;5027782;28;20032;-62
2023/08/24 00:43:23;;;;;;;7.20;4.65;;;;;;;-142.75;100.00;76383.28;5028341;28;20028;-62
2023/08/24 00:45:51;;;;;;;9.10;4.78;;;;;;;-142.75;100.00;76383.28;5027729;28;20610;-62
2023/08/24 00:48:17;;;;;;;7.68;4.80;;;;;;;-142.75;100.00;76395.09;5027556;28;20052;-63
2023/08/24 00:50:43;;;;;;;8.77;4.70;;;;;;;-142.75;100.00;76391.16;5027535;28;20025;-62
2023/08/24 00:53:08;;;;;;;9.45;4.63;;;;;;;-142.75;100.00;76381.31;5027504;28;20461;-62
2023/08/24 00:55:34;;;;;;;11.40;5.07;;;;;;;-142.75;100.00;76377.38;5027135;28;20380;-63
2023/08/24 00:57:59;;;;;;;8.75;4.93;;;;;;;-142.75;100.00;76373.44;5027485;28;20022;-62
2023/08/24 01:00:25;;;;;;;9.77;4.75;;;;;;;-142.75;100.00;76373.44;5027526;28;20411;-62
2023/08/24 01:02:50;;;;;;;7.47;5.20;;;;;;;-142.75;100.00;76365.56;5027686;28;20025;-62
2023/08/24 01:05:15;;;;;;;10.85;4.93;;;;;;;-142.75;100.00;76367.53;5026945;28;20439;-62
2023/08/24 01:07:41;;;;;;;7.07;4.32;;;;;;;-142.75;100.00;76369.50;5027463;28;20090;-62
2023/08/24 01:10:08;;;;;;;6.72;3.95;;;;;;;-142.75;100.00;76373.44;5027374;28;20032;-62
2023/08/24 01:12:51;;;;;;;7.07;4.40;;;;;;;-142.75;100.00;76377.38;5027348;28;20030;-62
2023/08/24 01:15:17;;;;;;;6.20;4.63;;;;;;;-142.75;100.00;76379.34;5027082;28;20032;-61
2023/08/24 01:17:45;;;;;;;7.78;4.68;;;;;;;-142.75;100.00;76359.66;5027099;28;20013;-62
2023/08/24 01:20:11;;;;;;;8.52;4.75;;;;;;;-142.75;100.00;76365.56;5026942;28;20083;-62
2023/08/24 01:22:39;;;;;;;7.47;5.18;;;;;;;-142.75;100.00;76361.63;5027141;28;20025;-62
2023/08/24 01:25:20;;;;;;;7.55;5.15;;;;;;;-142.75;100.00;76381.31;5026607;28;20480;-62
2023/08/24 01:27:48;;;;;;;8.35;4.97;;;;;;;-142.75;100.00;76369.50;5027052;28;20029;-62
2023/08/24 01:30:14;;;;;;;10.88;5.15;;;;;;;-142.75;100.00;76373.44;5026666;28;20027;-62
2023/08/24 01:32:40;;;;;;;7.65;5.28;;;;;;;-142.75;100.00;76381.31;5026838;28;20469;-62
2023/08/24 01:35:08;;;;;;;9.43;5.10;;;;;;;-142.75;100.00;76373.44;5026515;28;20366;-62
2023/08/24 01:37:38;;;;;;;9.05;5.55;;;;;;;-142.75;100.00;76361.63;5026577;28;20027;-62
2023/08/24 01:40:12;;;;;;;8.82;5.07;;;;;;;-142.75;100.00;76355.72;5026678;28;20032;-62
2023/08/24 01:43:05;;;;;;;11.18;5.10;;;;;;;-142.75;100.00;76338.03;5026591;28;20029;-62
2023/08/24 01:45:32;;;;;;;8.40;4.90;;;;;;;-142.75;100.00;76369.50;5026832;28;20469;-62
2023/08/24 01:48:00;;;;;;;10.88;5.25;;;;;;;-142.75;100.00;76375.41;5026621;28;20030;-63
2023/08/24 01:50:26;;;;;;;9.18;4.88;;;;;;;-142.75;100.00;76365.56;5026531;28;20020;-60
2023/08/24 01:52:52;;;;;;;9.30;4.68;;;;;;;-142.75;100.00;76349.81;5026510;28;20543;-62
2023/08/24 01:55:20;;;;;;;10.32;5.85;;;;;;;-142.75;100.00;76359.66;5025959;28;20493;-62
2023/08/24 01:57:46;;;;;;;9.82;6.43;;;;;;;-142.75;100.00;76371.47;5026288;28;20083;-62
2023/08/24 02:00:11;;;;;;;9.35;6.50;;;;;;;-142.75;100.00;76359.66;5026270;28;20026;-61
2023/08/24 02:02:37;;;;;;;7.68;5.97;;;;;;;-142.75;100.00;76338.03;5026484;28;20557;-62
2023/08/24 02:05:03;;;;;;;13.18;7.13;;;;;;;-142.75;100.00;76322.28;5025832;28;20037;-62
2023/08/24 02:07:29;;;;;;;13.68;6.03;;;;;;;-142.75;100.00;76326.22;5026164;28;20025;-62
2023/08/24 02:09:54;;;;;;;12.45;6.43;;;;;;;-142.75;100.00;76324.25;5026090;28;20365;-62
2023/08/24 02:12:20;;;;;;;11.43;6.35;;;;;;;-142.75;100.00;76310.47;5026438;28;20562;-62
2023/08/24 02:14:45;;;;;;;10.05;6.18;;;;;;;-142.75;100.00;76304.56;5026290;28;20017;-62
2023/08/24 02:17:11;;;;;;;15.40;7.07;;;;;;;-142.75;100.00;76316.38;5026301;28;20021;-61
2023/08/24 02:19:36;;;;;;;11.13;6.97;;;;;;;-142.75;100.00;76298.66;5025970;28;20029;-62
2023/08/24 02:22:01;;;;;;;11.25;7.32;;;;;;;-142.75;100.00;76282.91;5025913;28;20049;-61
2023/08/24 02:24:27;;;;;;;12.23;7.20;;;;;;;-142.75;100.00;76257.31;5025323;28;20064;-62
2023/08/24 02:26:52;;;;;;;11.43;6.93;;;;;;;-142.75;100.00;76251.41;5026106;28;20017;-62
2023/08/24 02:29:17;;;;;;;13.75;7.13;;;;;;;-142.75;100.00;76243.53;5025828;28;20457;-62
2023/08/24 02:31:43;;;;;;;19.10;8.68;;;;;;;-142.75;100.00;76243.53;5025819;28;20105;-62
2023/08/24 02:34:08;;;;;;;12.73;7.93;;;;;;;-142.75;100.00;76239.59;5025348;28;20109;-61
2023/08/24 02:36:33;;;;;;;10.90;6.95;;;;;;;-142.75;100.00;76247.47;5025860;28;20044;-62
2023/08/24 02:39:00;;;;;;;11.70;7.47;;;;;;;-142.75;100.00;76231.72;5025515;28;20017;-62
2023/08/24 02:41:25;;;;;;;12.68;7.82;;;;;;;-142.75;100.00;76239.59;5025655;28;20067;-64
2023/08/24 02:43:51;;;;;;;13.48;7.38;;;;;;;-142.75;100.00;76227.78;5026209;28;20469;-61
2023/08/24 02:46:18;;;;;;;11.38;7.55;;;;;;;-142.75;100.00;76219.91;5025395;28;20076;-61
2023/08/24 02:48:43;;;;;;;11.27;7.60;;;;;;;-142.75;100.00;76204.16;5025601;28;20097;-62
2023/08/24 02:51:09;;;;;;;11.77;7.35;;;;;;;-142.75;100.00;76219.91;5025698;28;20022;-61
2023/08/24 02:53:35;;;;;;;11.60;7.40;;;;;;;-142.75;100.00;76212.03;5024768;28;20613;-61
2023/08/24 02:56:00;;;;;;;10.82;6.68;;;;;;;-142.75;100.00;76192.38;5025234;28;20057;-61
2023/08/24 02:58:26;;;;;;;15.00;8.25;;;;;;;-142.75;100.00;76188.44;5025243;28;20400;-61
2023/08/24 03:00:52;;;;;;;14.23;7.68;;;;;;;-142.75;100.00;76192.38;5025536;28;20025;-62
2023/08/24 03:03:17;;;;;;;10.57;7.45;;;;;;;-142.75;100.00;76182.53;5025327;28;20368;-62
2023/08/24 03:05:59;;;;;;;11.75;7.72;;;;;;;-142.75;100.00;76176.63;5024868;28;20033;-61
2023/08/24 03:08:24;;;;;;;14.00;7.50;;;;;;;-142.75;100.00;76176.63;5025415;28;20106;-61
2023/08/24 03:10:50;;;;;;;10.75;7.15;;;;;;;-142.75;100.00;76170.72;5025127;28;20056;-62
2023/08/24 03:13:15;;;;;;;10.00;7.25;;;;;;;-142.75;100.00;76162.84;5025657;28;20033;-62
2023/08/24 03:15:41;;;;;;;12.55;6.10;;;;;;;-142.75;100.00;76170.72;5024979;28;20095;-61
2023/08/24 03:18:06;;;;;;;10.90;6.97;;;;;;;-142.75;100.00;76164.81;5025095;28;20100;-61
2023/08/24 03:20:32;;;;;;;11.50;6.47;;;;;;;-142.75;100.00;76158.91;5024811;28;20453;-62
2023/08/24 03:22:57;;;;;;;13.55;6.32;;;;;;;-142.75;100.00;76164.81;5025053;28;20102;-62
2023/08/24 03:25:23;;;;;;;12.07;7.35;;;;;;;-142.75;100.00;76162.84;5025176;28;20075;-61
2023/08/24 03:27:48;;;;;;;10.90;6.53;;;;;;;-142.75;100.00;76164.81;5025315;28;20119;-61
2023/08/24 03:30:14;;;;;;;12.05;6.55;;;;;;;-142.75;100.00;76151.03;5025054;28;20728;-61
2023/08/24 03:32:42;;;;;;;9.68;6.55;;;;;;;-142.75;100.00;76156.94;5025039;28;20022;-61
2023/08/24 03:35:08;;;;;;;9.32;6.72;;;;;;;-142.75;100.00;76196.31;5024486;28;20033;-61
2023/08/24 03:37:33;;;;;;;16.23;6.78;;;;;;;-142.75;100.00;76192.38;5024936;28;20021;-62
2023/08/24 03:39:59;;;;;;;12.70;6.78;;;;;;;-142.75;100.00;76188.44;5025003;28;20450;-60
2023/08/24 03:42:24;;;;;;;10.05;7.47;;;;;;;-142.75;100.00;76200.25;5025257;28;20492;-62
2023/08/24 03:44:50;;;;;;;9.85;6.60;;;;;;;-142.75;100.00;76194.34;5025237;28;20079;-60
2023/08/24 03:47:15;;;;;;;9.30;6.65;;;;;;;-142.75;100.00;76182.53;5024823;28;20021;-61
2023/08/24 03:49:44;;;;;;;9.68;6.25;;;;;;;-142.75;100.00;76180.56;5024954;28;20018;-61
2023/08/24 03:52:09;;;;;;;8.45;5.85;;;;;;;-142.75;100.00;76180.56;5024539;28;20014;-62
2023/08/24 03:54:34;;;;;;;14.32;6.70;;;;;;;-142.75;100.00;76186.47;5024786;28;20068;-62
2023/08/24 03:57:00;;;;;;;9.70;5.85;;;;;;;-142.75;100.00;76192.38;5024847;28;20017;-60
2023/08/24 03:59:26;;;;;;;12.77;7.03;;;;;;;-142.75;100.00;76200.25;5024696;28;20033;-60
2023/08/24 04:01:51;;;;;;;11.48;6.50;;;;;;;-142.75;100.00;76208.09;5024892;28;20107;-61
2023/08/24 04:04:16;;;;;;;10.63;6.57;;;;;;;-142.75;100.00;76192.38;5024923;28;20204;-61
2023/08/24 04:06:42;;;;;;;8.40;6.10;;;;;;;-142.75;100.00;76200.25;5028383;28;20021;-61
2023/08/24 04:09:07;;;;;;;8.93;6.00;;;;;;;-142.75;100.00;76200.25;5028414;28;20028;-61
2023/08/24 04:11:32;;;;;;;8.95;6.20;;;;;;;-142.75;100.00;76204.16;5028283;28;20045;-61
2023/08/24 04:13:58;;;;;;;9.70;6.57;;;;;;;-142.75;100.00;76210.06;5028670;28;20100;-61
2023/08/24 04:16:23;;;;;;;10.25;5.97;;;;;;;-142.75;100.00;76217.94;5028658;28;20029;-61
2023/08/24 04:18:48;;;;;;;8.27;6.07;;;;;;;-142.75;100.00;76221.88;5028294;28;20060;-61
2023/08/24 04:21:14;;;;;;;9.63;6.05;;;;;;;-142.75;100.00;76235.66;5027908;28;20109;-61
2023/08/24 04:23:44;;;;;;;7.93;5.70;;;;;;;-142.75;100.00;76251.41;5028169;28;20025;-61
2023/08/24 04:26:13;;;;;;;8.40;5.70;;;;;;;-142.75;100.00;76263.22;5027746;28;20040;-62
2023/08/24 04:28:38;;;;;;;14.10;6.07;;;;;;;-142.75;100.00;76263.22;5028149;28;20027;-61
2023/08/24 04:31:03;;;;;;;11.45;6.43;;;;;;;-142.75;100.00;76269.13;5027793;28;20104;-62
2023/08/24 04:33:29;;;;;;;9.32;6.35;;;;;;;-142.75;100.00;76269.13;5027857;28;20029;-62
2023/08/24 04:35:54;;;;;;;10.57;7.43;;;;;;;-142.75;100.00;76273.06;5028126;28;20029;-62
2023/08/24 04:38:20;;;;;;;10.50;6.95;;;;;;;-142.75;100.00;76265.19;5027951;28;20021;-59
2023/08/24 04:40:45;;;;;;;11.40;7.75;;;;;;;-142.75;100.00;76259.28;5027525;28;20119;-61
2023/08/24 04:43:11;;;;;;;11.13;6.65;;;;;;;-142.75;100.00;76249.44;5028301;28;20025;-61
2023/08/24 04:45:36;;;;;;;10.63;7.32;;;;;;;-142.75;100.00;76241.56;5026479;28;20040;-61
2023/08/24 04:48:02;;;;;;;11.25;7.47;;;;;;;-142.75;100.00;76233.69;5027689;28;20043;-62
2023/08/24 04:50:28;;;;;;;13.50;8.10;;;;;;;-142.75;100.00;76227.78;5027626;28;20184;-60
2023/08/24 04:52:53;;;;;;;14.05;7.95;;;;;;;-142.75;100.00;76219.91;5027891;28;20336;-61
2023/08/24 04:55:18;;;;;;;13.55;8.73;;;;;;;-142.75;100.00;76208.09;5027240;28;20025;-62
2023/08/24 04:57:44;;;;;;;9.80;7.25;;;;;;;-142.75;100.00;76212.03;5027588;28;20047;-61
2023/08/24 05:00:15;;;;;;;11.40;8.55;;;;;;;-142.75;100.00;76206.13;5025942;28;20021;-61
2023/08/24 05:02:41;;;;;;;11.45;7.72;;;;;;;-142.75;100.00;76198.28;5027196;28;20048;-62
2023/08/24 05:05:07;;;;;;;13.73;8.30;;;;;;;-142.75;100.00;76190.41;5026897;28;20111;-61
2023/08/24 05:07:32;;;;;;;11.48;8.25;;;;;;;-142.75;100.00;76194.34;5026106;28;20084;-61
2023/08/24 05:09:57;;;;;;;11.57;7.53;;;;;;;-142.75;100.00;76194.34;5027359;28;20154;-62
2023/08/24 05:12:23;;;;;;;13.88;8.65;;;;;;;-142.75;100.00;76196.31;5027520;28;20025;-62
2023/08/24 05:14:48;;;;;;;13.18;8.38;;;;;;;-142.75;100.00;76188.44;5028113;28;20075;-60
2023/08/24 05:17:14;;;;;;;12.80;8.77;;;;;;;-142.75;100.00;76172.69;5026307;28;20044;-62
2023/08/24 05:19:39;;;;;;;13.10;8.55;;;;;;;-142.75;100.00;76184.50;5026730;28;20464;-59
2023/08/24 05:22:04;;;;;;;13.35;8.43;;;;;;;-142.75;100.00;76164.81;5026974;28;20028;-61
2023/08/24 05:24:30;;;;;;;14.63;8.50;;;;;;;-142.75;100.00;76160.88;5041409;28;20031;-61
2023/08/24 05:26:55;;;;;;;14.48;8.07;;;;;;;-142.75;100.00;76154.97;5047101;28;20024;-62
2023/08/24 05:29:20;;;;;;;11.32;7.80;;;;;;;-142.75;100.00;76147.09;5046457;28;20020;-60
2023/08/24 05:31:46;;;;;;;12.77;8.10;;;;;;;-142.75;100.00;76131.34;5046788;28;20095;-62
2023/08/24 05:34:11;;;;;;;15.63;8.80;;;;;;;-142.75;100.00;76131.34;5046205;28;20020;-61
2023/08/24 05:36:36;;;;;;;17.90;9.43;;;;;;;-142.75;100.00;76121.50;5046684;28;20039;-61
2023/08/24 05:39:03;;;;;;;12.30;8.45;;;;;;;-142.75;100.00;76113.63;5046325;28;20037;-62
2023/08/24 05:41:28;;;;;;;14.98;9.13;;;;;;;-142.75;100.00;76093.94;5036273;28;20025;-61
2023/08/24 05:43:53;;;;;;;16.00;8.60;;;;;;;-142.75;100.00;76082.13;5026655;28;20531;-61
2023/08/24 05:46:19;;;;;;;15.40;9.57;;;;;;;-142.75;100.00;76078.19;5026935;28;20400;-60
2023/08/24 05:48:44;;;;;;;15.70;9.15;;;;;;;-142.75;100.00;76070.34;5026522;28;20064;-61
2023/08/24 05:51:12;;;;;;;15.70;9.50;;;;;;;-142.75;100.00;76062.47;5026603;28;20435;-62
2023/08/24 05:53:38;;;;;;;14.20;9.63;;;;;;;-142.75;100.00;76048.69;5027263;28;20025;-62
2023/08/24 05:56:03;;;;;;;13.80;9.38;;;;;;;-142.75;100.00;76052.63;5026127;28;20027;-63
2023/08/24 05:58:29;;;;;;;16.17;9.45;;;;;;;-142.75;100.00;76040.81;5026404;28;20108;-62
2023/08/24 06:00:58;;;;;;;16.40;9.77;;;;;;;-142.75;100.00;76030.97;5031001;28;20349;-62
2023/08/24 06:03:25;;;;;;;14.48;9.82;;;;;;;-142.75;100.00;76011.28;5027321;28;20029;-62
2023/08/24 06:05:50;;;;;;;14.77;9.93;;;;;;;-142.75;100.00;75995.53;5026137;28;20028;-63
2023/08/24 06:08:15;;;;;;;14.52;9.90;;;;;;;-142.75;100.00;75989.63;5026110;28;20272;-62
2023/08/24 06:10:41;;;;;;;16.38;10.38;;;;;;;-142.75;100.00;75967.97;5026208;28;20067;-63
2023/08/24 06:13:06;;;;;;;15.75;11.07;;;;;;;-142.75;100.00;75966.00;5025228;28;20056;-63
2023/08/24 06:15:32;;;;;;;18.10;10.32;;;;;;;-142.75;100.00;75956.19;5025697;28;20025;-63
2023/08/24 06:17:59;;;;;;;18.52;11.63;;;;;;;-142.75;100.00;75944.38;5025310;28;20108;-63
2023/08/24 06:20:24;;;;;;;16.77;11.02;;;;;;;-142.75;100.00;75938.47;5026225;28;20101;-63
2023/08/24 06:22:50;;;;;;;18.10;11.10;;;;;;;-142.75;100.00;75916.81;5025971;28;20104;-63
2023/08/24 06:25:15;;;;;;;19.25;12.32;;;;;;;-142.75;100.00;75916.81;5025219;28;20333;-63
2023/08/24 06:27:41;;;;;;;16.50;11.40;;;;;;;-142.75;100.00;75906.97;5025544;28;20053;-63
2023/08/24 06:30:07;;;;;;;20.10;11.63;;;;;;;-142.75;100.00;75897.13;5025377;28;20036;-63
2023/08/24 06:32:32;;;;;;;18.55;12.15;;;;;;;-142.75;100.00;75899.09;5029083;28;20039;-63
2023/08/24 06:34:57;;;;;;;20.02;13.18;;;;;;;-142.75;100.00;75889.25;5024853;28;20125;-62
2023/08/24 06:37:23;;;;;;;20.98;13.07;;;;;;;-142.75;100.00;75883.34;5025986;28;20121;-63
2023/08/24 06:39:48;;;;;;;19.45;12.13;;;;;;;-142.75;100.00;75881.38;5025606;28;20484;-63
2023/08/24 06:42:13;;;;;;;19.95;12.30;;;;;;;-142.75;100.00;75887.28;5021768;28;20052;-62
2023/08/24 06:44:39;;;;;;;19.23;13.27;;;;;;;-142.75;100.00;75899.09;5025055;28;20025;-63
2023/08/24 06:47:04;;;;;;;18.15;13.05;;;;;;;-142.75;100.00;75885.31;5024698;28;20104;-62
2023/08/24 06:49:29;;;;;;;18.70;12.63;;;;;;;-142.75;100.00;75853.84;5022705;28;20491;-63
2023/08/24 06:51:55;;;;;;;20.88;13.13;;;;;;;-142.75;100.00;75845.97;5022103;28;20057;-63
2023/08/24 06:54:20;;;;;;;21.05;12.82;;;;;;;-142.75;100.00;75838.09;5024579;28;20109;-63
2023/08/24 06:56:45;;;;;;;17.77;12.65;;;;;;;-142.75;100.00;75822.34;5025793;28;20675;-62
2023/08/24 06:59:13;;;;;;;21.30;13.88;;;;;;;-142.75;100.00;75810.53;5023472;28;20120;-62
2023/08/24 07:01:40;;;;;;;16.30;12.98;;;;;;;-142.75;100.00;75804.63;5022609;28;20144;-63
2023/08/24 07:04:06;;;;;;;18.38;12.93;;;;;;;-142.75;100.00;75798.72;5024671;28;20151;-63
2023/08/24 07:06:34;;;;;;;18.50;12.35;;;;;;;-142.75;100.00;75786.91;5023754;28;20034;-63
2023/08/24 07:08:59;;;;;;;18.88;12.20;;;;;;;-142.75;100.00;75782.97;5023458;28;20029;-64
2023/08/24 07:11:25;;;;;;;21.08;12.85;;;;;;;-142.75;100.00;75784.94;5028204;28;20022;-63
2023/08/24 07:13:53;;;;;;;19.48;12.05;;;;;;;-142.75;100.00;75775.09;5024151;28;20412;-62
2023/08/24 07:16:19;;;;;;;18.33;12.15;;;;;;;-142.75;100.00;75771.16;5027514;28;20029;-62
2023/08/24 07:18:44;;;;;;;19.73;12.07;;;;;;;-142.75;100.00;75747.56;5027492;28;20022;-62
2023/08/24 07:21:09;;;;;;;17.08;11.65;;;;;;;-142.75;100.00;75747.56;5025365;28;20036;-63
2023/08/24 07:23:34;;;;;;;19.77;12.02;;;;;;;-142.75;100.00;75757.41;5024486;28;20100;-63
2023/08/24 07:26:00;;;;;;;15.00;11.65;;;;;;;-142.75;100.00;75745.59;5022304;28;20108;-63
2023/08/24 07:28:25;;;;;;;18.17;11.43;;;;;;;-142.75;100.00;75739.69;5024580;28;20057;-63
2023/08/24 07:30:53;;;;;;;16.88;11.60;;;;;;;-142.75;100.00;75720.00;5024530;28;20393;-63
2023/08/24 07:33:18;;;;;;;16.75;11.38;;;;;;;-142.75;100.00;75708.19;5023505;28;20028;-63
2023/08/24 07:35:44;;;;;;;17.90;11.18;;;;;;;-142.75;100.00;75720.00;5024576;28;20025;-63
2023/08/24 07:38:09;;;;;;;16.85;10.65;;;;;;;-142.75;100.00;75700.31;5023706;28;20056;-63
2023/08/24 07:40:34;;;;;;;22.23;11.10;;;;;;;-142.75;100.00;75690.47;5027030;28;20025;-63
2023/08/24 07:43:00;;;;;;;16.58;10.95;;;;;;;-142.75;100.00;75690.47;5029048;28;20388;-63
2023/08/24 07:45:26;;;;;;;17.45;10.95;;;;;;;-142.75;100.00;75684.56;5029307;28;20088;-62
2023/08/24 07:47:51;;;;;;;13.85;10.45;;;;;;;-142.75;100.00;75692.44;5028987;28;20037;-63
2023/08/24 07:50:17;;;;;;;19.88;11.75;;;;;;;-142.75;100.00;75686.53;5029178;28;20021;-63
2023/08/24 07:52:42;;;;;;;16.23;10.82;;;;;;;-142.75;100.00;75694.41;5029410;28;20104;-63
2023/08/24 07:55:08;;;;;;;15.52;10.75;;;;;;;-142.75;100.00;75706.22;5028842;28;20035;-63
2023/08/24 07:57:34;;;;;;;17.45;10.88;;;;;;;-142.75;100.00;75690.47;5029281;28;20504;-61
2023/08/24 08:00:00;;;;;;;15.77;11.82;;;;;;;-142.75;100.00;75716.06;5029178;28;20036;-61
2023/08/24 08:02:25;;;;;;;16.33;10.68;;;;;;;-142.75;100.00;75743.63;5029484;28;20029;-62
2023/08/24 08:04:51;;;;;;;17.30;11.82;;;;;;;-142.75;100.00;75723.94;5028792;28;20025;-62
2023/08/24 08:07:16;;;;;;;20.15;11.70;;;;;;;-142.75;100.00;75720.00;5029001;28;20645;-62
2023/08/24 08:09:42;;;;;;;18.35;11.43;;;;;;;-142.75;100.00;75716.06;5029135;28;20028;-62
2023/08/24 08:12:07;;;;;;;18.80;14.00;;;;;;;-142.75;100.00;75698.34;5029076;28;20021;-62
2023/08/24 08:14:33;;;;;;;17.73;12.85;;;;;;;-142.75;100.00;75720.00;5028926;28;20025;-62
2023/08/24 08:16:58;;;;;;;18.42;11.52;;;;;;;-142.75;100.00;75737.72;5029701;28;20029;-62
2023/08/24 08:19:26;;;;;;;17.23;12.70;;;;;;;-142.75;100.00;75735.75;5028949;28;20029;-63
2023/08/24 08:21:52;;;;;;;21.45;12.95;;;;;;;-142.75;100.00;75731.81;5029222;28;20508;-63
2023/08/24 08:24:17;;;;;;;17.00;12.20;;;;;;;-142.75;100.00;75723.94;5028014;28;20030;-62
2023/08/24 08:26:42;;;;;;;15.90;11.90;;;;;;;-142.75;100.00;75731.81;5028073;28;20031;-63
2023/08/24 08:29:08;;;;;;;19.05;12.85;;;;;;;-142.75;100.00;75700.31;5028552;28;20047;-63
2023/08/24 08:31:33;;;;;;;17.90;12.70;;;;;;;-142.75;100.00;75696.38;5027936;28;20064;-63
2023/08/24 08:33:58;;;;;;;21.75;13.07;;;;;;;-142.75;100.00;75686.53;5027711;28;20467;-63
2023/08/24 08:36:24;;;;;;;20.92;12.32;;;;;;;-142.75;100.00;75690.47;5028708;28;20033;-62
2023/08/24 08:38:49;;;;;;;18.25;12.52;;;;;;;-142.75;100.00;75670.81;5028658;28;20047;-62
2023/08/24 08:41:21;;;;;;;25.85;13.40;;;;;;;-142.75;100.00;75657.03;5028363;28;20109;-62
2023/08/24 08:43:47;;;;;;;20.55;12.98;;;;;;;-142.75;100.00;75633.41;5028390;28;20025;-63
2023/08/24 08:46:15;;;;;;;18.15;12.27;;;;;;;-142.75;100.00;75621.59;5028564;28;20048;-62
2023/08/24 08:48:41;;;;;;;18.45;12.68;;;;;;;-142.75;100.00;75617.66;5028574;28;20029;-63
2023/08/24 08:51:07;;;;;;;20.70;12.80;;;;;;;-142.75;100.00;75617.66;5026896;28;20079;-63
2023/08/24 08:53:32;;;;;;;17.95;13.23;;;;;;;-142.75;100.00;75605.84;5028118;28;20440;-63
2023/08/24 08:56:03;;;;;;;19.90;13.05;;;;;;;-142.75;100.00;75611.75;5027938;28;20033;-63
2023/08/24 08:58:29;;;;;;;21.80;12.23;;;;;;;-142.75;100.00;75619.63;5028170;28;20037;-62
2023/08/24 09:00:55;;;;;;;21.20;12.98;;;;;;;-142.75;100.00;75601.91;5028181;28;20088;-63
2023/08/24 09:03:20;;;;;;;18.17;12.10;;;;;;;-142.75;100.00;75627.50;5027969;28;20485;-63
2023/08/24 09:05:47;;;;;;;21.33;12.63;;;;;;;-142.75;100.00;75627.50;5027774;28;20489;-63
2023/08/24 09:08:16;;;;;;;18.45;12.35;;;;;;;-142.75;100.00;75605.84;5027951;28;20024;-62
2023/08/24 09:10:42;;;;;;;18.92;13.93;;;;;;;-142.75;100.00;75599.94;5027662;28;20040;-63
2023/08/24 09:13:07;;;;;;;25.45;13.85;;;;;;;-142.75;100.00;75584.22;5027865;28;20018;-63
2023/08/24 09:15:36;;;;;;;19.55;13.63;;;;;;;-142.75;100.00;75562.56;5026740;28;20037;-62
2023/08/24 09:18:02;;;;;;;19.50;12.07;;;;;;;-142.75;100.00;75574.38;5027940;28;20033;-63
2023/08/24 09:20:31;;;;;;;19.40;13.18;;;;;;;-142.75;100.00;75570.44;5027783;28;20080;-63
2023/08/24 09:22:57;;;;;;;19.17;12.82;;;;;;;-142.75;100.00;75554.69;5028171;28;20025;-63
2023/08/24 09:25:25;;;;;;;17.35;11.80;;;;;;;-142.75;100.00;75550.75;5027354;28;20052;-63
2023/08/24 09:28:06;;;;;;;18.40;12.70;;;;;;;-142.75;100.00;75538.94;5027659;28;20064;-63
2023/08/24 09:30:34;;;;;;;20.40;12.85;;;;;;;-142.75;100.00;75558.63;5027773;28;20082;-62
2023/08/24 09:33:04;;;;;;;17.80;13.10;;;;;;;-142.75;100.00;75550.75;5027403;28;20049;-63
2023/08/24 09:35:35;;;;;;;21.05;13.05;;;;;;;-142.75;100.00;75558.63;5027159;28;20036;-63
2023/08/24 09:38:00;;;;;;;17.42;11.43;;;;;;;-142.75;100.00;75546.81;5027487;28;20564;-63
2023/08/24 09:40:26;;;;;;;17.25;11.50;;;;;;;-142.75;100.00;75531.06;5027202;28;20052;-63
2023/08/24 09:42:51;;;;;;;16.30;11.52;;;;;;;-142.75;100.00;75519.25;5027321;28;20029;-62
2023/08/24 09:45:17;;;;;;;17.45;10.65;;;;;;;-142.75;100.00;75501.56;5027680;28;20071;-62
2023/08/24 09:47:52;;;;;;;17.63;11.88;;;;;;;-142.75;100.00;75519.25;5027326;28;20036;-62
2023/08/24 09:50:18;;;;;;;17.73;11.05;;;;;;;-142.75;100.00;75536.97;5026983;28;20112;-62
2023/08/24 09:52:45;;;;;;;19.45;12.15;;;;;;;-142.75;100.00;75542.88;5027123;28;20160;-62
2023/08/24 09:55:13;;;;;;;19.02;11.35;;;;;;;-142.75;100.00;75562.56;5026695;28;20033;-62
2023/08/24 09:57:39;;;;;;;18.30;11.82;;;;;;;-142.75;100.00;75582.25;5027073;28;20021;-63
2023/08/24 10:00:14;;;;;;;15.88;11.18;;;;;;;-142.75;100.00;75597.97;5027101;28;20036;-63
2023/08/24 10:02:50;;;;;;;16.15;11.95;;;;;;;-142.75;100.00;75596.00;5026733;28;20043;-62
2023/08/24 10:05:22;;;;;;;20.15;13.35;;;;;;;-142.75;100.00;75609.78;5026398;28;20030;-63
2023/08/24 10:07:53;;;;;;;20.75;13.32;;;;;;;-142.75;100.00;75609.78;5026573;28;20033;-62
2023/08/24 10:10:21;;;;;;;18.73;11.80;;;;;;;-142.75;100.00;75611.75;5026813;28;20025;-62
2023/08/24 10:12:51;;;;;;;17.23;12.90;;;;;;;-142.75;100.00;75601.91;5026815;28;20032;-63
2023/08/24 10:15:17;;;;;;;22.17;13.90;;;;;;;-142.75;100.00;75597.97;5037239;28;20025;-63
2023/08/24 10:17:44;;;;;;;21.00;12.93;;;;;;;-142.75;100.00;75590.13;5046504;28;20037;-63
2023/08/24 10:20:11;;;;;;;20.85;13.10;;;;;;;-142.75;100.00;75572.41;5046441;28;20033;-63
2023/08/24 10:22:40;;;;;;;18.13;12.90;;;;;;;-142.75;100.00;75558.63;5046354;28;20024;-63
2023/08/24 10:25:07;;;;;;;21.50;14.38;;;;;;;-142.75;100.00;75554.69;5045968;28;20400;-63
2023/08/24 10:27:32;;;;;;;19.60;12.98;;;;;;;-142.75;100.00;75535.00;5045928;28;20059;-63
2023/08/24 10:29:58;;;;;;;20.23;14.30;;;;;;;-142.75;100.00;75513.38;5045467;28;20108;-63
2023/08/24 10:32:25;;;;;;;26.45;15.05;;;;;;;-142.75;100.00;75495.66;5045818;28;20029;-63
2023/08/24 10:34:51;;;;;;;26.73;15.55;;;;;;;-142.75;100.00;75495.66;5045247;28;20110;-63
2023/08/24 10:37:16;;;;;;;22.20;14.65;;;;;;;-142.75;100.00;75507.47;5045510;28;20067;-63
2023/08/24 10:39:46;;;;;;;19.35;13.65;;;;;;;-142.75;100.00;75505.50;5044467;28;20028;-63
2023/08/24 10:42:13;;;;;;;24.23;15.00;;;;;;;-142.75;100.00;75479.91;5044863;28;20040;-63
2023/08/24 10:44:40;;;;;;;21.55;15.23;;;;;;;-142.75;100.00;75460.22;5043787;28;20028;-63
2023/08/24 10:47:19;;;;;;;27.65;16.60;;;;;;;-142.75;100.00;75440.53;5045700;28;20033;-63
2023/08/24 10:49:58;;;;;;;29.17;16.95;;;;;;;-142.75;100.00;75432.69;5045316;28;20013;-63
2023/08/24 10:52:24;;;;;;;21.15;14.93;;;;;;;-142.75;100.00;75426.78;5041036;28;20021;-63
2023/08/24 10:54:54;;;;;;;21.35;15.65;;;;;;;-142.75;100.00;75430.72;5032856;28;20029;-63
2023/08/24 10:57:24;;;;;;;21.75;15.40;;;;;;;-142.75;100.00;75414.97;5028951;28;20026;-63